createdAt,value
2023-05-02T00:00:47.501Z,14.82
2023-05-02T00:03:14.267Z,13.73
2023-05-02T00:05:41.107Z,14.80
2023-05-02T00:08:07.641Z,14.55
2023-05-02T00:10:34.602Z,14.38
2023-05-02T00:13:01.025Z,14.15
2023-05-02T00:15:27.557Z,13.55
2023-05-02T00:17:53.926Z,11.90
2023-05-02T00:20:20.341Z,11.82
2023-05-02T00:22:47.789Z,10.60
2023-05-02T00:25:16.319Z,10.02
2023-05-02T00:27:44.052Z,10.20
2023-05-02T00:30:10.706Z,7.93
2023-05-02T00:32:37.078Z,6.95
2023-05-02T00:35:03.625Z,6.97
2023-05-02T00:37:30.000Z,6.25
2023-05-02T00:39:56.421Z,6.60
2023-05-02T00:42:22.920Z,5.93
2023-05-02T00:44:49.487Z,5.80
2023-05-02T00:47:16.014Z,5.68
2023-05-02T00:49:42.397Z,6.15
2023-05-02T00:52:09.211Z,6.63
2023-05-02T00:54:39.148Z,5.67
2023-05-02T00:57:05.816Z,5.45
2023-05-02T00:59:33.698Z,5.90
2023-05-02T01:02:28.193Z,5.10
2023-05-02T01:05:06.035Z,5.20
2023-05-02T01:07:54.357Z,5.40
2023-05-02T01:10:52.909Z,4.38
2023-05-02T01:13:26.222Z,4.30
2023-05-02T01:15:55.598Z,3.60
2023-05-02T01:18:24.763Z,3.13
2023-05-02T01:20:57.315Z,2.97
2023-05-02T01:23:32.751Z,2.10
2023-05-02T01:26:17.024Z,2.17
2023-05-02T01:28:57.341Z,1.50
2023-05-02T01:31:25.709Z,1.40
2023-05-02T01:33:53.658Z,1.10
2023-05-02T01:36:21.318Z,1.20
2023-05-02T01:38:49.878Z,0.75
2023-05-02T01:41:18.191Z,1.40
2023-05-02T01:43:46.976Z,1.40
2023-05-02T01:46:15.110Z,1.47
2023-05-02T01:48:46.202Z,1.60
2023-05-02T01:51:17.655Z,1.70
2023-05-02T01:53:45.898Z,1.23
2023-05-02T01:56:13.084Z,1.60
2023-05-02T01:58:41.078Z,1.67
2023-05-02T02:01:10.378Z,1.30
2023-05-02T02:03:36.857Z,1.60
2023-05-02T02:06:05.359Z,1.67
2023-05-02T02:08:31.881Z,1.33
2023-05-02T02:11:03.308Z,1.80
2023-05-02T02:13:39.517Z,1.52
2023-05-02T02:16:09.543Z,1.27
2023-05-02T02:18:38.254Z,1.30
2023-05-02T02:21:09.402Z,1.50
2023-05-02T02:23:38.760Z,1.30
2023-05-02T02:26:07.995Z,1.67
2023-05-02T02:28:34.585Z,1.52
2023-05-02T02:31:01.154Z,1.33
2023-05-02T02:33:31.259Z,1.67
2023-05-02T02:36:31.529Z,1.30
2023-05-02T02:39:10.156Z,1.30
2023-05-02T02:41:42.333Z,1.48
2023-05-02T02:44:08.601Z,0.98
2023-05-02T02:46:50.591Z,0.90
2023-05-02T02:49:47.339Z,0.80
2023-05-02T02:52:28.096Z,0.98
2023-05-02T02:55:06.396Z,0.80
2023-05-02T02:57:51.458Z,0.80
2023-05-02T03:00:22.250Z,1.52
2023-05-02T03:02:48.900Z,0.80
2023-05-02T03:05:16.492Z,0.82
2023-05-02T03:07:43.115Z,0.80
2023-05-02T03:10:09.733Z,1.23
2023-05-02T03:12:36.159Z,0.70
2023-05-02T03:15:41.599Z,1.00
2023-05-02T03:18:08.030Z,0.95
2023-05-02T03:20:34.424Z,0.68
2023-05-02T03:23:00.970Z,1.40
2023-05-02T03:25:27.342Z,1.20
2023-05-02T03:27:54.092Z,1.03
2023-05-02T03:30:20.476Z,1.08
2023-05-02T03:32:46.857Z,1.00
2023-05-02T03:35:13.243Z,1.10
2023-05-02T03:37:39.897Z,1.50
2023-05-02T03:40:07.249Z,1.40
2023-05-02T03:42:42.350Z,1.13
2023-05-02T03:45:09.056Z,1.10
2023-05-02T03:47:35.709Z,1.65
2023-05-02T03:50:03.334Z,0.85
2023-05-02T03:52:29.772Z,0.90
2023-05-02T03:54:56.934Z,1.20
2023-05-02T03:57:23.276Z,1.33
2023-05-02T03:59:49.687Z,1.50
2023-05-02T04:02:16.072Z,1.35
2023-05-02T04:04:43.273Z,1.10
2023-05-02T04:07:15.672Z,1.33
2023-05-02T04:09:42.187Z,1.83
2023-05-02T04:12:08.580Z,1.17
2023-05-02T04:14:35.039Z,1.35
2023-05-02T04:17:01.471Z,1.33
2023-05-02T04:19:27.898Z,1.05
2023-05-02T04:21:54.329Z,0.68
2023-05-02T04:24:20.799Z,1.50
2023-05-02T04:26:48.941Z,1.10
2023-05-02T04:29:15.614Z,1.17
2023-05-02T04:31:42.314Z,0.90
2023-05-02T04:34:08.704Z,0.95
2023-05-02T04:36:35.285Z,0.85
2023-05-02T04:39:01.598Z,1.00
2023-05-02T04:41:27.949Z,0.97
2023-05-02T04:43:54.285Z,1.10
2023-05-02T04:46:20.790Z,1.40
2023-05-02T04:48:47.516Z,1.40
2023-05-02T04:51:16.829Z,1.10
2023-05-02T04:53:43.446Z,1.53
2023-05-02T04:56:09.925Z,1.15
2023-05-02T04:58:36.350Z,1.52
2023-05-02T05:01:02.801Z,1.55
2023-05-02T05:03:30.732Z,1.30
2023-05-02T05:05:57.324Z,1.30
2023-05-02T05:08:23.822Z,1.83
2023-05-02T05:10:50.772Z,1.27
2023-05-02T05:13:17.149Z,1.60
2023-05-02T05:15:44.424Z,1.30
2023-05-02T05:18:10.976Z,1.80
2023-05-02T05:20:37.435Z,1.48
2023-05-02T05:23:03.887Z,1.98
2023-05-02T05:25:30.488Z,1.40
2023-05-02T05:27:57.241Z,1.45
2023-05-02T05:30:23.635Z,2.07
2023-05-02T05:32:50.105Z,1.50
2023-05-02T05:35:16.572Z,1.88
2023-05-02T05:37:43.941Z,2.05
2023-05-02T05:40:10.586Z,2.03
2023-05-02T05:42:37.005Z,2.27
2023-05-02T05:45:03.474Z,1.77
2023-05-02T05:47:29.978Z,1.48
2023-05-02T05:49:56.905Z,1.40
2023-05-02T05:52:23.278Z,1.80
2023-05-02T05:54:49.661Z,1.43
2023-05-02T05:57:16.056Z,1.50
2023-05-02T05:59:42.376Z,1.55
2023-05-02T06:02:09.276Z,1.40
2023-05-02T06:04:35.712Z,1.67
2023-05-02T06:07:02.058Z,2.33
2023-05-02T06:09:28.468Z,1.80
2023-05-02T06:11:54.876Z,1.95
2023-05-02T06:14:21.535Z,1.83
2023-05-02T06:16:47.959Z,2.25
2023-05-02T06:19:15.258Z,1.63
2023-05-02T06:21:41.711Z,1.60
2023-05-02T06:24:08.103Z,1.90
2023-05-02T06:26:34.486Z,2.50
2023-05-02T06:29:01.308Z,1.65
2023-05-02T06:31:27.896Z,1.53
2023-05-02T06:33:54.315Z,1.80
2023-05-02T06:36:20.769Z,1.52
2023-05-02T06:38:47.950Z,1.02
2023-05-02T06:41:17.278Z,1.27
2023-05-02T06:43:44.473Z,0.80
2023-05-02T06:46:10.874Z,1.10
2023-05-02T06:48:37.438Z,1.10
2023-05-02T06:51:04.434Z,0.95
2023-05-02T06:53:33.062Z,1.92
2023-05-02T06:55:59.693Z,1.50
2023-05-02T06:58:26.178Z,1.60
2023-05-02T07:00:52.670Z,1.60
2023-05-02T07:03:19.047Z,1.25
2023-05-02T07:05:45.465Z,1.27
2023-05-02T07:08:11.951Z,1.13
2023-05-02T07:10:38.479Z,1.48
2023-05-02T07:13:04.811Z,1.60
2023-05-02T07:15:31.309Z,1.75
2023-05-02T07:17:57.696Z,1.52
2023-05-02T07:20:24.097Z,2.00
2023-05-02T07:22:50.689Z,2.38
2023-05-02T07:25:17.111Z,1.45
2023-05-02T07:27:43.569Z,1.23
2023-05-02T07:30:10.301Z,2.10
2023-05-02T07:32:36.752Z,1.10
2023-05-02T07:35:03.261Z,2.13
2023-05-02T07:37:34.805Z,1.60
2023-05-02T07:40:01.553Z,1.60
2023-05-02T07:42:31.802Z,1.85
2023-05-02T07:44:59.400Z,1.53
2023-05-02T07:47:26.589Z,1.60
2023-05-02T07:49:54.185Z,1.58
2023-05-02T07:52:20.787Z,2.00
2023-05-02T07:54:51.164Z,1.30
2023-05-02T07:57:18.574Z,1.53
2023-05-02T07:59:45.219Z,1.45
2023-05-02T08:02:13.701Z,0.90
2023-05-02T08:04:41.139Z,1.42
2023-05-02T08:07:07.705Z,1.00
2023-05-02T08:09:34.088Z,1.20
2023-05-02T08:12:02.549Z,1.20
2023-05-02T08:14:28.985Z,1.40
2023-05-02T08:16:55.357Z,1.10
2023-05-02T08:19:21.754Z,1.48
2023-05-02T08:21:48.313Z,1.00
2023-05-02T08:24:14.719Z,1.08
2023-05-02T08:26:41.174Z,0.90
2023-05-02T08:29:07.766Z,1.20
2023-05-02T08:31:34.204Z,1.00
2023-05-02T08:34:00.668Z,0.80
2023-05-02T08:36:29.073Z,0.77
2023-05-02T08:38:55.462Z,0.82
2023-05-02T08:41:22.617Z,0.95
2023-05-02T08:43:49.000Z,0.90
2023-05-02T08:46:17.450Z,0.80
2023-05-02T08:48:48.041Z,1.00
2023-05-02T08:51:16.701Z,0.75
2023-05-02T08:53:43.896Z,0.80
2023-05-02T08:56:11.555Z,1.08
2023-05-02T08:58:39.503Z,0.90
2023-05-02T09:01:17.348Z,0.85
2023-05-02T09:03:45.861Z,1.00
2023-05-02T09:06:18.026Z,0.70
2023-05-02T09:08:46.252Z,0.80
2023-05-02T09:11:13.242Z,0.90
2023-05-02T09:14:03.745Z,0.80
2023-05-02T09:16:38.340Z,0.80
2023-05-02T09:19:04.795Z,0.85
2023-05-02T09:21:40.015Z,1.15
2023-05-02T09:24:18.080Z,0.77
2023-05-02T09:26:56.788Z,0.95
2023-05-02T09:29:23.716Z,0.60
2023-05-02T09:31:56.006Z,0.90
2023-05-02T09:34:23.578Z,0.60
2023-05-02T09:36:53.969Z,0.90
2023-05-02T09:39:25.567Z,0.80
2023-05-02T09:41:52.704Z,1.02
2023-05-02T09:44:21.538Z,1.02
2023-05-02T09:46:50.005Z,0.80
2023-05-02T09:49:20.047Z,0.70
2023-05-02T09:51:47.987Z,0.90
2023-05-02T09:54:15.485Z,0.95
2023-05-02T09:56:56.624Z,1.10
2023-05-02T09:59:24.318Z,0.82
2023-05-02T10:01:59.205Z,1.00
2023-05-02T10:04:27.077Z,1.10
2023-05-02T10:06:54.280Z,1.10
2023-05-02T10:09:21.929Z,1.00
2023-05-02T10:11:55.467Z,1.10
2023-05-02T10:14:23.740Z,1.00
2023-05-02T10:17:02.163Z,1.50
2023-05-02T10:20:07.007Z,1.20
2023-05-02T10:22:34.565Z,1.40
2023-05-02T10:25:03.172Z,1.23
2023-05-02T10:27:31.688Z,1.03
2023-05-02T10:30:02.359Z,0.90
2023-05-02T10:32:29.996Z,1.08
2023-05-02T10:35:04.439Z,1.65
2023-05-02T10:37:35.777Z,1.10
2023-05-02T10:40:02.617Z,1.13
2023-05-02T10:42:30.156Z,1.08
2023-05-02T10:44:56.719Z,1.58
2023-05-02T10:47:24.713Z,1.13
2023-05-02T10:49:52.414Z,0.93
2023-05-02T10:52:38.814Z,1.40
2023-05-02T10:55:14.903Z,1.27
2023-05-02T10:57:59.754Z,1.40
2023-05-02T11:00:34.281Z,1.30
2023-05-02T11:03:01.825Z,1.42
2023-05-02T11:05:28.712Z,1.10
2023-05-02T11:08:22.999Z,1.38
2023-05-02T11:10:49.795Z,1.45
2023-05-02T11:13:16.265Z,1.30
2023-05-02T11:15:42.555Z,1.58
2023-05-02T11:18:13.064Z,1.70
2023-05-02T11:20:44.677Z,1.10
2023-05-02T11:23:14.043Z,1.45
2023-05-02T11:25:43.592Z,1.20
2023-05-02T11:28:48.371Z,1.42
2023-05-02T11:31:27.157Z,1.10
2023-05-02T11:34:01.455Z,1.50
2023-05-02T11:36:34.956Z,1.40
2023-05-02T11:39:02.849Z,1.67
2023-05-02T11:41:39.815Z,2.60
2023-05-02T11:44:06.396Z,1.60
2023-05-02T11:46:33.427Z,1.52
2023-05-02T11:49:01.107Z,1.83
2023-05-02T11:51:27.598Z,2.50
2023-05-02T11:53:54.233Z,1.90
2023-05-02T11:56:25.008Z,1.80
2023-05-02T11:59:03.173Z,1.65
2023-05-02T12:01:30.192Z,2.22
2023-05-02T12:04:10.372Z,2.40
2023-05-02T12:06:36.896Z,1.50
2023-05-02T12:09:11.303Z,1.53
2023-05-02T12:11:38.580Z,2.15
2023-05-02T12:14:08.264Z,1.67
2023-05-02T12:16:35.251Z,2.75
2023-05-02T12:19:01.988Z,2.22
2023-05-02T12:21:29.884Z,1.73
2023-05-02T12:23:57.064Z,1.50
2023-05-02T12:26:30.839Z,1.40
2023-05-02T12:28:58.988Z,1.60
2023-05-02T12:31:27.233Z,1.67
2023-05-02T12:33:57.398Z,1.67
2023-05-02T12:36:24.418Z,1.27
2023-05-02T12:38:57.139Z,1.38
2023-05-02T12:41:37.855Z,1.50
2023-05-02T12:44:05.764Z,1.50
2023-05-02T12:46:32.770Z,1.50
2023-05-02T12:49:07.949Z,1.65
2023-05-02T12:51:34.896Z,1.98
2023-05-02T12:54:01.595Z,1.50
2023-05-02T12:56:32.106Z,1.58
2023-05-02T12:59:01.317Z,1.37
2023-05-02T13:01:28.886Z,1.50
2023-05-02T13:03:55.595Z,1.40
2023-05-02T13:06:22.088Z,1.55
2023-05-02T13:08:48.610Z,1.38
2023-05-02T13:11:15.759Z,1.40
2023-05-02T13:13:42.068Z,1.30
2023-05-02T13:16:08.560Z,1.60
2023-05-02T13:18:35.087Z,1.63
2023-05-02T13:21:01.537Z,1.58
2023-05-02T13:23:27.958Z,1.50
2023-05-02T13:25:54.372Z,1.40
2023-05-02T13:28:20.789Z,1.35
2023-05-02T13:30:47.241Z,1.52
2023-05-02T13:33:13.701Z,2.00
2023-05-02T13:35:40.156Z,1.30
2023-05-02T13:38:06.681Z,1.40
2023-05-02T13:40:33.075Z,1.20
2023-05-02T13:42:59.435Z,1.58
2023-05-02T13:45:25.885Z,1.95
2023-05-02T13:47:52.320Z,1.37
2023-05-02T13:50:18.680Z,1.17
2023-05-02T13:52:47.675Z,1.08
2023-05-02T13:55:14.917Z,1.58
2023-05-02T13:57:41.290Z,1.05
2023-05-02T14:00:09.644Z,1.20
2023-05-02T14:02:36.679Z,1.20
2023-05-02T14:05:03.849Z,1.38
2023-05-02T14:07:30.599Z,1.33
2023-05-02T14:09:57.005Z,0.95
2023-05-02T14:12:23.377Z,1.63
2023-05-02T14:14:50.075Z,1.10
2023-05-02T14:17:16.483Z,1.10
2023-05-02T14:19:42.822Z,1.20
2023-05-02T14:22:09.235Z,1.30
2023-05-02T14:24:35.794Z,1.30
2023-05-02T14:27:02.479Z,1.15
2023-05-02T14:29:29.054Z,1.08
2023-05-02T14:31:55.684Z,1.27
2023-05-02T14:34:22.162Z,0.90
2023-05-02T14:36:48.588Z,0.80
2023-05-02T14:39:14.981Z,1.20
2023-05-02T14:41:41.514Z,1.15
2023-05-02T14:44:07.887Z,1.00
2023-05-02T14:46:34.471Z,1.35
2023-05-02T14:49:01.027Z,1.77
2023-05-02T14:51:27.394Z,1.27
2023-05-02T14:53:54.297Z,1.00
2023-05-02T14:56:21.605Z,2.13
2023-05-02T14:58:48.012Z,0.98
2023-05-02T15:01:19.284Z,1.50
2023-05-02T15:04:04.486Z,1.15
2023-05-02T15:06:33.090Z,1.60
2023-05-02T15:08:59.624Z,1.25
2023-05-02T15:11:26.005Z,0.95
2023-05-02T15:13:52.377Z,1.00
2023-05-02T15:16:18.806Z,0.93
2023-05-02T15:18:45.446Z,0.90
2023-05-02T15:21:11.933Z,0.73
2023-05-02T15:23:38.308Z,0.80
2023-05-02T15:26:04.708Z,0.77
2023-05-02T15:28:31.218Z,0.93
2023-05-02T15:30:57.635Z,1.02
2023-05-02T15:33:24.121Z,1.15
2023-05-02T15:35:55.808Z,1.05
2023-05-02T15:38:22.356Z,0.90
2023-05-02T15:40:59.342Z,1.30
2023-05-02T15:43:26.780Z,1.10
2023-05-02T15:45:54.690Z,1.10
2023-05-02T15:48:21.992Z,0.90
2023-05-02T15:50:48.720Z,0.80
2023-05-02T15:53:16.420Z,0.85
2023-05-02T15:55:43.706Z,0.88
2023-05-02T15:58:10.147Z,0.85
2023-05-02T16:00:36.541Z,0.57
2023-05-02T16:03:04.112Z,1.20
2023-05-02T16:05:30.929Z,0.93
2023-05-02T16:07:57.315Z,0.88
2023-05-02T16:10:23.872Z,1.00
2023-05-02T16:12:50.307Z,0.80
2023-05-02T16:15:16.717Z,0.90
2023-05-02T16:17:43.158Z,0.75
2023-05-02T16:20:12.691Z,0.60
2023-05-02T16:22:39.314Z,0.70
2023-05-02T16:25:06.178Z,0.80
2023-05-02T16:27:33.362Z,0.90
2023-05-02T16:30:00.085Z,1.05
2023-05-02T16:32:28.076Z,0.50
2023-05-02T16:34:54.455Z,0.77
2023-05-02T16:37:20.982Z,0.75
2023-05-02T16:39:47.347Z,1.00
2023-05-02T16:42:13.755Z,0.63
2023-05-02T16:44:40.264Z,0.70
2023-05-02T16:47:10.847Z,0.80
2023-05-02T16:49:37.309Z,0.52
2023-05-02T16:52:03.811Z,0.80
2023-05-02T16:54:30.336Z,0.80
2023-05-02T16:56:56.701Z,0.60
2023-05-02T16:59:23.084Z,0.90
2023-05-02T17:01:49.978Z,0.57
2023-05-02T17:04:17.001Z,0.60
2023-05-02T17:06:43.380Z,0.60
2023-05-02T17:09:09.901Z,0.70
2023-05-02T17:11:36.274Z,0.82
2023-05-02T17:14:02.670Z,0.60
2023-05-02T17:16:29.080Z,0.77
2023-05-02T17:18:55.475Z,1.00
2023-05-02T17:21:21.926Z,0.70
2023-05-02T17:23:48.344Z,0.70
2023-05-02T17:26:16.614Z,1.00
2023-05-02T17:28:43.764Z,0.50
2023-05-02T17:31:10.990Z,0.68
2023-05-02T17:33:37.608Z,0.70
2023-05-02T17:36:04.848Z,1.08
2023-05-02T17:38:31.173Z,0.60
2023-05-02T17:40:57.607Z,0.97
2023-05-02T17:43:24.102Z,0.60
2023-05-02T17:45:50.731Z,0.80
2023-05-02T17:48:17.257Z,0.80
2023-05-02T17:50:44.077Z,0.55
2023-05-02T17:53:10.593Z,1.17
2023-05-02T17:55:37.725Z,0.60
2023-05-02T17:58:04.489Z,0.50
2023-05-02T18:00:30.915Z,0.90
2023-05-02T18:02:57.457Z,0.90
2023-05-02T18:05:26.221Z,0.40
2023-05-02T18:07:53.051Z,0.45
2023-05-02T18:10:19.523Z,0.60
2023-05-02T18:12:45.891Z,0.50
2023-05-02T18:15:12.316Z,0.70
2023-05-02T18:17:38.838Z,0.50
2023-05-02T18:20:07.035Z,0.40
2023-05-02T18:22:33.712Z,0.55
2023-05-02T18:25:00.289Z,0.40
2023-05-02T18:27:26.922Z,0.50
2023-05-02T18:29:54.410Z,0.50
2023-05-02T18:32:21.541Z,0.40
2023-05-02T18:34:48.393Z,0.77
2023-05-02T18:37:14.764Z,0.88
2023-05-02T18:39:41.152Z,0.52
2023-05-02T18:42:08.248Z,0.53
2023-05-02T18:44:34.737Z,0.70
2023-05-02T18:47:01.067Z,0.52
2023-05-02T18:49:27.399Z,0.93
2023-05-02T18:51:54.922Z,0.50
2023-05-02T18:54:23.115Z,0.60
2023-05-02T18:56:49.521Z,0.75
2023-05-02T18:59:16.294Z,0.90
2023-05-02T19:01:42.753Z,1.02
2023-05-02T19:04:09.096Z,1.00
2023-05-02T19:06:35.795Z,0.90
2023-05-02T19:09:02.246Z,0.93
2023-05-02T19:11:28.563Z,0.75
2023-05-02T19:13:58.463Z,0.82
2023-05-02T19:16:27.000Z,3.35
2023-05-02T19:18:55.757Z,0.97
2023-05-02T19:21:23.741Z,1.00
2023-05-02T19:23:50.558Z,1.35
2023-05-02T19:26:17.832Z,1.17
2023-05-02T19:28:45.489Z,0.80
2023-05-02T19:31:13.323Z,1.10
2023-05-02T19:33:40.596Z,0.98
2023-05-02T19:36:07.667Z,0.80
2023-05-02T19:38:34.851Z,0.75
2023-05-02T19:41:01.620Z,0.70
2023-05-02T19:43:28.013Z,0.43
2023-05-02T19:45:54.725Z,0.52
2023-05-02T19:48:22.849Z,0.50
2023-05-02T19:50:49.687Z,0.50
2023-05-02T19:53:16.419Z,0.63
2023-05-02T19:55:42.840Z,0.50
2023-05-02T19:58:09.512Z,0.60
2023-05-02T20:00:35.945Z,0.88
2023-05-02T20:03:03.138Z,0.50
2023-05-02T20:05:29.524Z,0.60
2023-05-02T20:07:55.868Z,0.70
2023-05-02T20:10:22.431Z,0.70
2023-05-02T20:12:48.835Z,0.60
2023-05-02T20:15:18.159Z,0.52
2023-05-02T20:17:44.837Z,0.70
2023-05-02T20:20:11.668Z,0.83
2023-05-02T20:22:39.951Z,0.80
2023-05-02T20:25:08.725Z,1.00
2023-05-02T20:27:35.198Z,0.82
2023-05-02T20:30:01.777Z,0.63
2023-05-02T20:32:28.516Z,0.63
2023-05-02T20:34:54.926Z,0.60
2023-05-02T20:37:21.624Z,0.73
2023-05-02T20:39:48.023Z,0.70
2023-05-02T20:42:15.094Z,0.68
2023-05-02T20:44:41.957Z,0.70
2023-05-02T20:47:08.344Z,0.70
2023-05-02T20:49:34.738Z,0.60
2023-05-02T20:52:05.444Z,0.60
2023-05-02T20:54:31.764Z,1.00
2023-05-02T20:56:58.127Z,0.63
2023-05-02T20:59:25.494Z,0.90
2023-05-02T21:01:51.979Z,0.80
2023-05-02T21:04:18.683Z,0.57
2023-05-02T21:06:46.965Z,0.80
2023-05-02T21:09:13.569Z,0.70
2023-05-02T21:11:40.438Z,0.60
2023-05-02T21:14:06.749Z,0.70
2023-05-02T21:16:33.215Z,0.80
2023-05-02T21:18:59.661Z,0.95
2023-05-02T21:21:25.991Z,0.90
2023-05-02T21:23:52.313Z,1.20
2023-05-02T21:26:18.843Z,1.15
2023-05-02T21:28:45.568Z,0.68
2023-05-02T21:31:12.053Z,0.77
2023-05-02T21:33:38.540Z,0.80
2023-05-02T21:36:05.273Z,0.93
2023-05-02T21:38:31.676Z,0.60
2023-05-02T21:41:01.499Z,0.82
2023-05-02T21:43:29.516Z,0.70
2023-05-02T21:45:56.051Z,1.23
2023-05-02T21:48:22.558Z,0.73
2023-05-02T21:50:48.900Z,0.93
2023-05-02T21:53:15.249Z,0.80
2023-05-02T21:55:41.662Z,0.90
2023-05-02T21:58:11.691Z,0.80
2023-05-02T22:00:39.169Z,0.90
2023-05-02T22:03:11.724Z,0.95
2023-05-02T22:05:39.983Z,1.00
2023-05-02T22:08:10.888Z,0.80
2023-05-02T22:10:42.061Z,0.93
2023-05-02T22:13:12.234Z,1.30
2023-05-02T22:15:42.973Z,1.30
2023-05-02T22:18:10.371Z,0.90
2023-05-02T22:20:37.941Z,0.80
2023-05-02T22:23:04.449Z,1.00
2023-05-02T22:25:30.897Z,0.70
2023-05-02T22:28:00.919Z,1.48
2023-05-02T22:30:27.281Z,0.80
2023-05-02T22:32:53.731Z,1.00
2023-05-02T22:35:21.344Z,1.00
2023-05-02T22:37:47.668Z,0.90
2023-05-02T22:40:14.845Z,0.88
2023-05-02T22:42:41.395Z,1.10
2023-05-02T22:45:09.456Z,0.90
2023-05-02T22:47:36.308Z,1.07
2023-05-02T22:50:05.431Z,0.82
2023-05-02T22:52:37.571Z,0.95
2023-05-02T22:55:05.779Z,1.10
2023-05-02T22:57:32.427Z,0.93
2023-05-02T22:59:58.823Z,1.10
2023-05-02T23:02:26.723Z,1.30
2023-05-02T23:04:53.089Z,1.40
2023-05-02T23:07:19.500Z,1.02
2023-05-02T23:09:45.908Z,1.00
2023-05-02T23:12:12.587Z,0.90
2023-05-02T23:14:38.916Z,1.10
2023-05-02T23:17:05.331Z,0.80
2023-05-02T23:19:31.843Z,0.98
2023-05-02T23:21:59.198Z,1.33
2023-05-02T23:24:26.522Z,1.00
2023-05-02T23:26:52.932Z,1.25
2023-05-02T23:29:19.327Z,0.80
2023-05-02T23:31:47.854Z,0.90
2023-05-02T23:34:14.422Z,1.13
2023-05-02T23:36:40.865Z,1.07
2023-05-02T23:39:07.526Z,1.20
2023-05-02T23:41:34.282Z,1.10
2023-05-02T23:44:00.905Z,1.27
2023-05-02T23:46:27.509Z,1.10
2023-05-02T23:48:53.951Z,1.10
2023-05-02T23:51:20.447Z,1.10
2023-05-02T23:53:46.874Z,1.15
2023-05-02T23:56:13.336Z,1.30
2023-05-02T23:58:39.704Z,1.30
